Time;durP1;ratioP1;P1;durP2;ratioP2;P2;SDS_P1;SDS_P2;PMS_P1;PMS_P2;Temp;Humidity;BMP_temperature;BMP_pressure;BME280_temperature;BME280_humidity;BME280_pressure;Samples;Min_cycle;Max_cycle;Signal;HPM_P1;HPM_P2
2022/01/13 00:01:01;;;;;;;23.93;16.77;;;;;;;-0.62;100.00;100453.13;5110185;28;20211;-70
2022/01/13 00:03:28;;;;;;;25.23;18.00;;;;;;;-0.59;100.00;100436.72;5106455;28;20210;-70
2022/01/13 00:05:54;;;;;;;27.20;17.77;;;;;;;-0.55;100.00;100438.50;5108621;28;20210;-69
2022/01/13 00:08:21;;;;;;;24.13;16.70;;;;;;;-0.52;100.00;100430.72;5109971;28;20217;-70
2022/01/13 00:10:47;;;;;;;24.10;17.17;;;;;;;-0.50;100.00;100431.66;5099632;28;20217;-70
2022/01/13 00:13:23;;;;;;;22.43;16.50;;;;;;;-0.50;100.00;100439.44;5110012;28;20247;-70
2022/01/13 00:15:51;;;;;;;26.17;17.67;;;;;;;-0.48;100.00;100436.00;5109375;28;20217;-69
2022/01/13 00:18:29;;;;;;;25.20;16.73;;;;;;;-0.45;100.00;100435.16;5109552;28;20305;-69
2022/01/13 00:21:13;;;;;;;27.70;18.03;;;;;;;-0.39;100.00;100443.88;5107341;28;20214;-69
2022/01/13 00:23:45;;;;;;;26.60;17.77;;;;;;;-0.37;100.00;100455.16;5108827;28;20214;-69
2022/01/13 00:26:18;;;;;;;29.50;19.17;;;;;;;-0.35;100.00;100458.66;5109483;28;20675;-70
2022/01/13 00:28:48;;;;;;;27.00;16.87;;;;;;;-0.34;100.00;100452.59;5109298;28;20221;-70
2022/01/13 00:31:18;;;;;;;27.67;18.63;;;;;;;-0.28;100.00;100459.56;5109543;28;20237;-70
2022/01/13 00:33:47;;;;;;;25.37;17.23;;;;;;;-0.28;100.00;100471.72;5096997;28;20304;-70
2022/01/13 00:36:14;;;;;;;27.63;18.07;;;;;;;-0.26;100.00;100470.88;5097567;28;20211;-69
2022/01/13 00:38:40;;;;;;;25.07;17.53;;;;;;;-0.20;100.00;100470.94;5098434;28;20214;-69
2022/01/13 00:41:07;;;;;;;25.43;18.77;;;;;;;-0.22;100.00;100476.97;5099766;28;20217;-69
2022/01/13 00:43:37;;;;;;;25.50;17.47;;;;;;;-0.17;100.00;100478.75;5097443;28;20218;-70
2022/01/13 00:46:04;;;;;;;24.57;16.93;;;;;;;-0.17;100.00;100482.25;5095590;28;20213;-69
2022/01/13 00:48:31;;;;;;;24.77;17.27;;;;;;;-0.15;100.00;100485.72;5098500;28;20650;-70
2022/01/13 00:50:58;;;;;;;25.40;17.80;;;;;;;-0.14;100.00;100494.41;5099617;28;20697;-69
2022/01/13 00:53:24;;;;;;;26.10;17.87;;;;;;;-0.13;100.00;100494.38;5097137;28;20242;-69
2022/01/13 00:55:58;;;;;;;27.30;17.93;;;;;;;-0.13;100.00;100508.28;5097154;28;20224;-69
2022/01/13 00:58:26;;;;;;;27.67;16.77;;;;;;;-0.13;100.00;100488.34;5098874;28;20286;-70
2022/01/13 01:00:53;;;;;;;28.50;18.47;;;;;;;-0.09;100.00;100493.56;5099361;28;20209;-70
2022/01/13 01:03:21;;;;;;;27.60;17.47;;;;;;;-0.09;100.00;100488.38;5097214;28;20225;-70
2022/01/13 01:05:49;;;;;;;24.33;17.80;;;;;;;-0.08;100.00;100485.81;5097040;28;20218;-70
2022/01/13 01:08:17;;;;;;;25.47;16.93;;;;;;;-0.09;100.00;100493.56;5098678;28;20664;-69
2022/01/13 01:10:45;;;;;;;27.20;19.00;;;;;;;-0.06;100.00;100494.47;5102329;28;20209;-69
2022/01/13 01:13:13;;;;;;;25.90;17.47;;;;;;;-0.03;100.00;100501.44;5095750;28;20238;-70
2022/01/13 01:15:44;;;;;;;26.67;17.50;;;;;;;-0.04;100.00;100492.75;5101382;28;20217;-69
2022/01/13 01:18:23;;;;;;;28.57;18.67;;;;;;;0.00;100.00;100488.50;5103711;28;20217;-69
2022/01/13 01:21:04;;;;;;;28.83;19.53;;;;;;;-0.04;100.00;100495.34;5100944;28;20221;-69
2022/01/13 01:23:35;;;;;;;25.87;17.73;;;;;;;-0.01;100.00;100486.72;5100677;28;20220;-69
2022/01/13 01:26:07;;;;;;;28.90;18.67;;;;;;;0.03;100.00;100489.38;5103432;28;20304;-70
2022/01/13 01:28:42;;;;;;;25.33;17.93;;;;;;;0.05;100.00;100495.47;5101403;28;20565;-69
2022/01/13 01:31:10;;;;;;;26.83;18.27;;;;;;;0.04;100.00;100491.13;5100378;28;20240;-70
2022/01/13 01:33:40;;;;;;;29.73;18.90;;;;;;;0.07;100.00;100498.94;5100379;28;20250;-70
2022/01/13 01:36:12;;;;;;;27.90;19.90;;;;;;;0.06;100.00;100505.00;5103787;28;20816;-70
2022/01/13 01:38:40;;;;;;;28.10;20.07;;;;;;;0.07;100.00;100505.88;5099130;28;20215;-70
2022/01/13 01:41:06;;;;;;;28.73;18.80;;;;;;;0.04;100.00;100503.25;5100722;28;20218;-70
2022/01/13 01:43:33;;;;;;;28.73;19.37;;;;;;;0.05;100.00;100507.59;5101524;28;20214;-70
2022/01/13 01:45:59;;;;;;;33.20;20.07;;;;;;;0.10;100.00;100512.00;5105691;28;20293;-69
2022/01/13 01:48:29;;;;;;;32.20;20.10;;;;;;;0.10;100.00;100512.00;5100193;28;20225;-69
2022/01/13 01:50:58;;;;;;;30.37;19.40;;;;;;;0.12;100.00;100510.25;5100472;28;20264;-69
2022/01/13 01:53:27;;;;;;;28.93;18.00;;;;;;;0.10;100.00;100501.59;5101509;28;20241;-70
2022/01/13 01:55:56;;;;;;;30.57;19.97;;;;;;;0.14;100.00;100512.88;5102603;28;20301;-70
2022/01/13 01:58:22;;;;;;;27.60;18.80;;;;;;;0.07;100.00;100506.75;5100305;28;20211;-70
2022/01/13 02:00:49;;;;;;;30.43;20.30;;;;;;;0.04;100.00;100506.72;5100217;28;20293;-70
2022/01/13 02:03:16;;;;;;;28.20;19.90;;;;;;;0.06;100.00;100499.81;5101163;28;20225;-70
2022/01/13 02:05:43;;;;;;;33.13;20.93;;;;;;;0.04;100.00;100501.53;5101124;28;20220;-70
2022/01/13 02:08:10;;;;;;;38.57;22.10;;;;;;;0.02;100.00;100498.03;5099877;28;20684;-69
2022/01/13 02:10:38;;;;;;;31.00;20.63;;;;;;;0.06;100.00;100488.50;5108794;28;20203;-70
2022/01/13 02:13:08;;;;;;;37.67;22.57;;;;;;;0.03;100.00;100491.09;5103375;28;20276;-69
2022/01/13 02:15:46;;;;;;;31.10;20.47;;;;;;;0.01;100.00;100485.88;5102234;28;20214;-70
2022/01/13 02:18:14;;;;;;;30.93;21.40;;;;;;;0.05;100.00;100479.88;5100038;28;20222;-70
2022/01/13 02:20:50;;;;;;;32.20;21.10;;;;;;;0.04;100.00;100474.66;5099706;28;20228;-70
2022/01/13 02:23:35;;;;;;;35.10;21.53;;;;;;;0.02;100.00;100461.63;5108661;28;20210;-70
2022/01/13 02:26:02;;;;;;;31.20;21.07;;;;;;;0.02;100.00;100461.63;5110997;28;20583;-70
2022/01/13 02:28:29;;;;;;;32.07;20.70;;;;;;;0.01;100.00;100470.28;5111905;28;20217;-70
2022/01/13 02:30:55;;;;;;;34.30;22.03;;;;;;;-0.02;100.00;100470.28;5107876;28;20248;-70
2022/01/13 02:33:22;;;;;;;34.03;21.93;;;;;;;-0.04;100.00;100471.09;5110496;28;20234;-69
2022/01/13 02:35:50;;;;;;;33.60;21.37;;;;;;;-0.06;100.00;100463.28;5111920;28;20210;-70
2022/01/13 02:38:16;;;;;;;31.60;20.67;;;;;;;-0.10;100.00;100464.09;5111984;28;20214;-69
2022/01/13 02:40:43;;;;;;;34.77;21.43;;;;;;;-0.16;100.00;100456.25;5109674;28;20206;-69
2022/01/13 02:43:10;;;;;;;33.67;21.30;;;;;;;-0.17;100.00;100447.56;5109900;28;20567;-70
2022/01/13 02:45:39;;;;;;;36.60;22.27;;;;;;;-0.19;100.00;100460.53;5111858;28;20225;-70
2022/01/13 02:50:54;;;;;;;35.97;22.30;;;;;;;-0.22;100.00;100456.19;5107973;28;20222;-70
2022/01/13 02:53:21;;;;;;;35.13;22.40;;;;;;;-0.23;100.00;100450.09;5111336;28;20234;-69
2022/01/13 02:55:47;;;;;;;35.37;22.53;;;;;;;-0.27;100.00;100451.81;5109497;28;20218;-70
2022/01/13 02:58:14;;;;;;;36.10;22.90;;;;;;;-0.32;100.00;100448.28;5111074;28;20228;-70
2022/01/13 03:00:41;;;;;;;33.67;21.57;;;;;;;-0.31;100.00;100441.38;5111685;28;20674;-69
2022/01/13 03:03:08;;;;;;;34.80;21.97;;;;;;;-0.34;100.00;100446.53;5099147;28;20236;-70
2022/01/13 03:05:38;;;;;;;34.03;22.33;;;;;;;-0.34;100.00;100439.59;5099144;28;20233;-69
2022/01/13 03:08:06;;;;;;;36.67;22.80;;;;;;;-0.41;100.00;100442.13;5099207;28;20309;-69
2022/01/13 03:10:33;;;;;;;35.63;22.73;;;;;;;-0.46;100.00;100443.78;5104961;28;20214;-69
2022/01/13 03:13:00;;;;;;;35.33;21.23;;;;;;;-0.49;100.00;100447.22;5098588;28;20246;-70
2022/01/13 03:15:27;;;;;;;37.63;23.43;;;;;;;-0.53;100.00;100441.97;5098922;28;20566;-70
2022/01/13 03:17:54;;;;;;;32.83;22.23;;;;;;;-0.60;100.00;100440.19;5099040;28;20217;-69
2022/01/13 03:20:20;;;;;;;33.20;21.93;;;;;;;-0.74;100.00;100452.13;5101986;28;20228;-69
2022/01/13 03:22:47;;;;;;;35.77;21.77;;;;;;;-0.87;100.00;100445.91;5096683;28;20675;-69
2022/01/13 03:25:20;;;;;;;38.03;23.20;;;;;;;-0.90;100.00;100442.41;5098730;28;20218;-69
2022/01/13 03:27:52;;;;;;;34.87;22.23;;;;;;;-0.94;100.00;100438.00;5099594;28;20244;-69
2022/01/13 03:30:19;;;;;;;34.67;21.37;;;;;;;-0.95;100.00;100431.06;5100581;28;20603;-69
2022/01/13 03:32:45;;;;;;;30.60;20.50;;;;;;;-0.92;100.00;100431.13;5098483;28;20248;-69
2022/01/13 03:35:11;;;;;;;35.43;21.60;;;;;;;-0.91;100.00;100433.75;5098558;28;20222;-70
2022/01/13 03:37:38;;;;;;;32.80;21.87;;;;;;;-0.96;100.00;100437.13;5099077;28;20213;-69
2022/01/13 03:40:06;;;;;;;32.67;20.60;;;;;;;-1.01;100.00;100434.47;5101050;28;20210;-69
2022/01/13 03:42:34;;;;;;;34.10;22.17;;;;;;;-1.00;100.00;100432.78;5098282;28;20218;-70
2022/01/13 03:45:01;;;;;;;32.63;21.13;;;;;;;-1.07;100.00;100433.50;5098410;28;20219;-69
2022/01/13 03:47:27;;;;;;;35.20;21.93;;;;;;;-1.13;100.00;100428.25;5098214;28;20214;-69
2022/01/13 03:49:54;;;;;;;33.60;21.90;;;;;;;-1.22;100.00;100425.53;5100188;28;20697;-69
2022/01/13 03:52:50;;;;;;;32.83;19.87;;;;;;;-1.24;100.00;100432.44;5097906;28;20218;-69
2022/01/13 03:55:54;;;;;;;31.17;19.70;;;;;;;-1.36;100.00;100427.09;5098865;28;20224;-69
2022/01/13 03:59:07;;;;;;;31.63;20.73;;;;;;;-1.43;100.00;100422.63;5097972;28;20328;-69
2022/01/13 04:02:02;;;;;;;35.83;21.97;;;;;;;-1.42;100.00;100439.97;5106425;28;20210;-69
2022/01/13 04:04:30;;;;;;;32.13;20.90;;;;;;;-1.37;100.00;100430.50;5097694;28;20226;-69
2022/01/13 04:07:15;;;;;;;35.43;22.17;;;;;;;-1.29;100.00;100429.75;5098009;28;20217;-69
2022/01/13 04:10:27;;;;;;;34.17;22.33;;;;;;;-1.26;100.00;100429.81;5107166;28;20219;-70
2022/01/13 04:12:55;;;;;;;36.47;22.33;;;;;;;-1.30;100.00;100432.34;5110181;28;20234;-69
2022/01/13 04:15:23;;;;;;;31.47;21.03;;;;;;;-1.34;100.00;100425.38;5106833;28;20589;-69
2022/01/13 04:17:51;;;;;;;34.63;21.43;;;;;;;-1.32;100.00;100434.03;5109884;28;20210;-70
2022/01/13 04:20:18;;;;;;;28.50;19.77;;;;;;;-1.37;100.00;100427.91;5110043;28;20217;-70
2022/01/13 04:22:46;;;;;;;30.20;20.03;;;;;;;-1.32;100.00;100424.53;5109602;28;20212;-69
2022/01/13 04:25:14;;;;;;;32.10;20.00;;;;;;;-1.24;100.00;100424.66;5105906;28;20212;-69
2022/01/13 04:27:43;;;;;;;30.60;20.23;;;;;;;-1.14;100.00;100426.50;5109774;28;20679;-70
2022/01/13 04:30:32;;;;;;;30.30;19.03;;;;;;;-1.10;100.00;100429.16;5109379;28;20214;-69
2022/01/13 04:33:00;;;;;;;29.73;19.50;;;;;;;-1.01;100.00;100436.19;5105817;28;20711;-69
2022/01/13 04:35:27;;;;;;;32.50;20.27;;;;;;;-0.96;100.00;100440.59;5109482;28;20219;-69
2022/01/13 04:37:53;;;;;;;30.53;19.57;;;;;;;-0.90;100.00;100434.63;5109512;28;20217;-70
2022/01/13 04:40:20;;;;;;;30.73;20.27;;;;;;;-0.83;100.00;100431.22;5107908;28;20228;-70
2022/01/13 04:42:53;;;;;;;32.77;20.63;;;;;;;-0.78;100.00;100434.75;5106254;28;20218;-70
2022/01/13 04:45:20;;;;;;;30.97;19.57;;;;;;;-0.70;100.00;100438.31;5097121;28;20221;-69
2022/01/13 04:47:47;;;;;;;31.43;19.47;;;;;;;-0.68;100.00;100440.06;5096660;28;20222;-69
2022/01/13 04:50:15;;;;;;;29.00;20.13;;;;;;;-0.65;100.00;100442.72;5096913;28;20250;-69
2022/01/13 04:52:41;;;;;;;28.83;18.60;;;;;;;-0.55;100.00;100454.09;5100980;28;20220;-69
2022/01/13 04:55:11;;;;;;;31.67;20.63;;;;;;;-0.50;100.00;100457.63;5097580;28;20214;-69
2022/01/13 04:57:37;;;;;;;28.67;19.03;;;;;;;-0.41;100.00;100452.50;5097457;28;20298;-69
2022/01/13 05:00:05;;;;;;;28.70;19.37;;;;;;;-0.38;100.00;100453.41;5097185;28;20591;-70
2022/01/13 05:02:32;;;;;;;30.23;19.60;;;;;;;-0.34;100.00;100449.13;5105578;28;20285;-69
2022/01/13 05:04:59;;;;;;;30.77;19.47;;;;;;;-0.28;100.00;100450.91;5097202;28;20217;-70
2022/01/13 05:07:26;;;;;;;27.83;19.90;;;;;;;-0.23;100.00;100458.78;5095213;28;20227;-70
2022/01/13 05:09:53;;;;;;;31.57;19.73;;;;;;;-0.21;100.00;100462.25;5099554;28;20241;-70
2022/01/13 05:12:25;;;;;;;30.93;20.77;;;;;;;-0.20;100.00;100457.94;5100987;28;20221;-70
2022/01/13 05:14:55;;;;;;;28.43;19.57;;;;;;;-0.22;100.00;100458.78;5097019;28;20249;-70
2022/01/13 05:17:46;;;;;;;33.77;19.53;;;;;;;-0.17;100.00;100459.69;5097085;28;20246;-70
2022/01/13 05:20:16;;;;;;;31.17;20.83;;;;;;;-0.20;100.00;100450.16;5100431;28;20253;-69
2022/01/13 05:22:44;;;;;;;28.57;19.77;;;;;;;-0.13;100.00;100449.34;5096946;28;20218;-69
2022/01/13 05:25:11;;;;;;;31.07;20.10;;;;;;;-0.13;100.00;100461.50;5096899;28;20218;-70
2022/01/13 05:27:38;;;;;;;29.37;19.33;;;;;;;-0.09;100.00;100457.19;5096654;28;20221;-70
2022/01/13 05:30:06;;;;;;;29.47;19.93;;;;;;;-0.07;100.00;100456.34;5105372;28;20679;-70
2022/01/13 05:32:33;;;;;;;32.47;21.27;;;;;;;-0.12;100.00;100450.22;5095303;28;20620;-70
2022/01/13 05:34:59;;;;;;;32.13;20.27;;;;;;;-0.12;100.00;100458.03;5096755;28;20238;-69
2022/01/13 05:37:26;;;;;;;28.53;18.90;;;;;;;-0.08;100.00;100456.31;5096645;28;20222;-70
2022/01/13 05:39:54;;;;;;;28.17;19.20;;;;;;;-0.04;100.00;100461.56;5100167;28;20221;-69
2022/01/13 05:42:20;;;;;;;28.43;19.80;;;;;;;-0.02;100.00;100465.06;5096438;28;20218;-69
2022/01/13 05:44:47;;;;;;;32.60;19.97;;;;;;;-0.04;100.00;100471.97;5096817;28;20223;-70
2022/01/13 05:47:14;;;;;;;27.43;19.63;;;;;;;-0.07;100.00;100456.34;5096668;28;20233;-69
2022/01/13 05:49:42;;;;;;;30.23;18.73;;;;;;;-0.02;100.00;100470.28;5099979;28;20683;-69
2022/01/13 05:52:10;;;;;;;29.93;20.10;;;;;;;-0.01;100.00;100461.59;5096781;28;20210;-70
2022/01/13 05:54:38;;;;;;;27.27;18.80;;;;;;;0.02;100.00;100468.56;5096455;28;20692;-69
2022/01/13 05:57:06;;;;;;;29.07;19.07;;;;;;;0.00;100.00;100473.75;5096608;28;20219;-70
2022/01/13 05:59:33;;;;;;;30.70;20.13;;;;;;;0.01;100.00;100475.47;5099543;28;20213;-69
2022/01/13 06:02:00;;;;;;;27.70;18.47;;;;;;;-0.01;100.00;100477.22;5099959;28;20244;-70
2022/01/13 06:04:26;;;;;;;27.80;19.37;;;;;;;0.03;100.00;100473.78;5100283;28;20212;-70
2022/01/13 06:06:53;;;;;;;29.57;20.47;;;;;;;0.04;100.00;100479.84;5100409;28;20581;-70
2022/01/13 06:09:19;;;;;;;28.27;19.87;;;;;;;0.07;100.00;100475.53;5103717;28;20236;-69
2022/01/13 06:11:55;;;;;;;28.27;18.77;;;;;;;0.08;100.00;100469.47;5111697;28;20575;-69
2022/01/13 06:14:23;;;;;;;28.30;19.40;;;;;;;0.09;100.00;100473.84;5100088;28;20249;-70
2022/01/13 06:16:49;;;;;;;27.17;18.77;;;;;;;0.08;100.00;100473.81;5100015;28;20671;-70
2022/01/13 06:19:16;;;;;;;27.87;18.27;;;;;;;0.06;100.00;100479.00;5103630;28;20210;-69
2022/01/13 06:21:42;;;;;;;26.67;18.37;;;;;;;0.00;100.00;100471.16;5099712;28;20214;-70
2022/01/13 06:24:09;;;;;;;25.97;18.53;;;;;;;-0.08;100.00;100465.00;5098167;28;20211;-69
2022/01/13 06:26:35;;;;;;;27.27;18.53;;;;;;;-0.08;100.00;100454.63;5100083;28;20207;-69
2022/01/13 06:29:02;;;;;;;30.03;19.43;;;;;;;-0.08;100.00;100454.63;5103465;28;20225;-70
2022/01/13 06:31:30;;;;;;;28.13;18.57;;;;;;;-0.08;100.00;100459.81;5099911;28;20244;-70
2022/01/13 06:33:57;;;;;;;25.83;17.47;;;;;;;-0.02;100.00;100452.06;5099540;28;20235;-69
2022/01/13 06:36:23;;;;;;;30.23;18.97;;;;;;;-0.01;100.00;100459.00;5099651;28;20217;-69
2022/01/13 06:38:51;;;;;;;25.67;18.00;;;;;;;0.01;100.00;100457.28;5102797;28;20219;-70
2022/01/13 06:41:18;;;;;;;25.77;17.90;;;;;;;0.01;100.00;100464.22;5099956;28;20589;-69
2022/01/13 06:43:45;;;;;;;27.37;19.40;;;;;;;-0.03;100.00;100473.72;5099576;28;20211;-70
2022/01/13 06:46:12;;;;;;;28.30;19.57;;;;;;;0.00;100.00;100473.75;5109350;28;20214;-70
2022/01/13 06:48:40;;;;;;;26.57;18.97;;;;;;;0.01;100.00;100470.28;5102959;28;20220;-70
2022/01/13 06:51:06;;;;;;;25.50;17.50;;;;;;;0.03;100.00;100478.09;5097820;28;20696;-70
2022/01/13 06:53:33;;;;;;;26.10;17.77;;;;;;;0.03;100.00;100485.91;5098986;28;20214;-70
2022/01/13 06:55:59;;;;;;;24.87;17.63;;;;;;;0.07;100.00;100490.28;5099371;28;20208;-70
2022/01/13 06:58:27;;;;;;;27.43;18.57;;;;;;;0.06;100.00;100486.81;5101724;28;20225;-70
2022/01/13 07:00:53;;;;;;;28.00;18.70;;;;;;;0.03;100.00;100488.50;5100223;28;20246;-70
2022/01/13 07:03:21;;;;;;;29.13;18.57;;;;;;;0.01;100.00;100485.88;5098787;28;20211;-69
2022/01/13 07:05:49;;;;;;;27.03;18.37;;;;;;;0.00;100.00;100498.88;5098692;28;20213;-70
2022/01/13 07:08:16;;;;;;;30.07;19.63;;;;;;;-0.05;100.00;100501.41;5101258;28;20213;-69
2022/01/13 07:10:42;;;;;;;28.50;18.03;;;;;;;-0.06;100.00;100510.06;5101926;28;20218;-69
2022/01/13 07:13:09;;;;;;;28.70;18.77;;;;;;;-0.11;100.00;100511.75;5098309;28;20242;-69
2022/01/13 07:15:35;;;;;;;26.37;18.73;;;;;;;-0.09;100.00;100519.56;5097247;28;20238;-70
2022/01/13 07:18:02;;;;;;;27.27;18.67;;;;;;;-0.08;100.00;100519.59;5100396;28;20215;-70
2022/01/13 07:20:29;;;;;;;30.63;20.50;;;;;;;-0.03;100.00;100530.03;5100262;28;20675;-69
2022/01/13 07:22:57;;;;;;;28.87;18.90;;;;;;;0.00;100.00;100530.09;5098850;28;20224;-69
2022/01/13 07:25:24;;;;;;;27.07;18.73;;;;;;;0.01;100.00;100534.41;5098745;28;20264;-70
2022/01/13 07:27:50;;;;;;;29.27;19.50;;;;;;;0.07;100.00;100532.75;5100406;28;20669;-69
2022/01/13 07:30:17;;;;;;;29.53;20.00;;;;;;;0.12;100.00;100535.38;5096870;28;20612;-69
2022/01/13 07:32:44;;;;;;;28.93;18.83;;;;;;;0.18;100.00;100531.13;5097388;28;20217;-69
2022/01/13 07:35:11;;;;;;;30.80;19.87;;;;;;;0.16;100.00;100532.84;5098073;28;20242;-70
2022/01/13 07:37:39;;;;;;;27.37;18.47;;;;;;;0.22;100.00;100527.72;5100003;28;20214;-70
2022/01/13 07:40:13;;;;;;;28.30;18.53;;;;;;;0.20;100.00;100529.41;5100175;28;20757;-69
2022/01/13 07:42:41;;;;;;;28.70;18.83;;;;;;;0.22;100.00;100532.91;5096773;28;20296;-70
2022/01/13 07:45:09;;;;;;;31.00;19.87;;;;;;;0.20;100.00;100542.41;5098118;28;20224;-70
2022/01/13 07:47:35;;;;;;;28.33;18.80;;;;;;;0.22;100.00;100545.91;5100671;28;20207;-69
2022/01/13 07:50:02;;;;;;;31.30;19.77;;;;;;;0.28;100.00;100543.38;5099234;28;20221;-70
2022/01/13 07:52:28;;;;;;;29.23;18.80;;;;;;;0.31;100.00;100542.53;5098252;28;20221;-70
2022/01/13 07:54:55;;;;;;;27.80;19.30;;;;;;;0.38;100.00;100534.78;5097989;28;20242;-70
2022/01/13 07:57:23;;;;;;;28.20;18.67;;;;;;;0.41;100.00;100532.22;5100001;28;20215;-70
2022/01/13 07:59:49;;;;;;;29.60;18.80;;;;;;;0.45;100.00;100538.31;5099468;28;20239;-69
2022/01/13 08:02:16;;;;;;;28.03;18.63;;;;;;;0.48;100.00;100531.41;5106688;28;20213;-70
2022/01/13 08:04:42;;;;;;;30.07;18.87;;;;;;;0.58;99.42;100538.44;5097990;28;20573;-70
2022/01/13 08:07:09;;;;;;;27.77;18.20;;;;;;;0.60;99.47;100541.03;5099697;28;20207;-70
2022/01/13 08:09:35;;;;;;;26.87;18.50;;;;;;;0.63;99.03;100547.13;5098052;28;20213;-70
2022/01/13 08:12:02;;;;;;;27.13;18.10;;;;;;;0.69;98.75;100547.19;5108031;28;20222;-70
2022/01/13 08:14:30;;;;;;;26.17;18.40;;;;;;;0.69;98.03;100557.59;5097811;28;20238;-70
2022/01/13 08:16:59;;;;;;;27.20;18.80;;;;;;;0.64;97.99;100548.91;5099292;28;20211;-70
2022/01/13 08:22:10;;;;;;;28.40;19.27;;;;;;;0.69;98.49;100547.19;5100924;28;20336;-69
2022/01/13 08:24:36;;;;;;;28.23;19.10;;;;;;;0.71;98.27;100534.19;5108832;28;20679;-70
2022/01/13 08:27:03;;;;;;;26.07;18.33;;;;;;;0.76;98.40;100538.59;5106051;28;20218;-70
2022/01/13 08:29:31;;;;;;;27.40;18.00;;;;;;;0.81;97.39;100547.28;5109883;28;20220;-70
2022/01/13 08:31:58;;;;;;;27.60;18.70;;;;;;;0.83;97.62;100545.59;5109843;28;20707;-70
2022/01/13 08:34:24;;;;;;;26.23;18.37;;;;;;;0.87;97.43;100547.34;5107593;28;20711;-70
2022/01/13 08:36:51;;;;;;;25.60;17.90;;;;;;;0.92;97.65;100535.22;5106171;28;20576;-71
2022/01/13 08:39:18;;;;;;;28.20;18.63;;;;;;;0.97;96.87;100537.84;5108945;28;20214;-70
2022/01/13 08:41:45;;;;;;;29.83;18.57;;;;;;;0.97;96.80;100537.84;5109605;28;20225;-70
2022/01/13 08:44:12;;;;;;;24.70;17.37;;;;;;;0.94;96.60;100533.53;5109626;28;20216;-70
2022/01/13 08:46:40;;;;;;;27.33;17.90;;;;;;;0.95;96.83;100537.88;5106328;28;20215;-70
2022/01/13 08:49:06;;;;;;;27.03;17.63;;;;;;;0.99;95.90;100537.00;5109156;28;20223;-71
2022/01/13 08:51:33;;;;;;;24.77;17.43;;;;;;;1.01;95.59;100535.31;5109259;28;20614;-70
2022/01/13 08:54:00;;;;;;;25.43;16.93;;;;;;;1.06;94.71;100544.00;5109368;28;20214;-70
2022/01/13 08:56:26;;;;;;;25.47;18.10;;;;;;;1.14;94.25;100542.34;5106633;28;20211;-70
2022/01/13 08:58:53;;;;;;;25.53;17.30;;;;;;;1.20;93.81;100537.16;5108064;28;20680;-71
2022/01/13 09:01:20;;;;;;;29.57;17.97;;;;;;;1.26;93.75;100542.41;5107732;28;20218;-70
2022/01/13 09:03:48;;;;;;;23.90;16.93;;;;;;;1.31;92.76;100545.03;5109392;28;20675;-70
2022/01/13 09:06:14;;;;;;;24.30;17.33;;;;;;;1.32;92.75;100537.25;5106760;28;20206;-70
2022/01/13 09:08:41;;;;;;;23.30;16.27;;;;;;;1.41;92.90;100539.03;5107788;28;20213;-70
2022/01/13 09:11:07;;;;;;;25.23;17.77;;;;;;;1.52;93.20;100527.78;5111259;28;20209;-70
2022/01/13 09:13:37;;;;;;;23.47;16.03;;;;;;;1.63;92.87;100528.69;5109369;28;20229;-70
2022/01/13 09:16:12;;;;;;;27.73;16.63;;;;;;;1.66;92.62;100523.47;5108729;28;20702;-70
2022/01/13 09:18:58;;;;;;;25.73;16.87;;;;;;;1.69;91.63;100523.50;5097327;28;20218;-70
2022/01/13 09:21:30;;;;;;;24.50;16.23;;;;;;;1.75;91.42;100515.72;5097054;28;20214;-70
2022/01/13 09:23:57;;;;;;;25.77;16.00;;;;;;;1.81;91.50;100507.03;5099465;28;20215;-70
2022/01/13 09:26:23;;;;;;;23.40;15.97;;;;;;;1.87;91.61;100514.88;5096519;28;20210;-70
2022/01/13 09:28:50;;;;;;;21.80;15.70;;;;;;;1.84;91.96;100513.13;5097153;28;20221;-70
2022/01/13 09:31:16;;;;;;;20.83;14.33;;;;;;;1.82;92.46;100513.97;5097037;28;20258;-70
2022/01/13 09:33:43;;;;;;;20.53;14.80;;;;;;;1.74;94.02;100519.19;5099068;28;20426;-70
2022/01/13 09:36:10;;;;;;;23.60;15.20;;;;;;;1.64;94.78;100512.19;5101945;28;20235;-70
2022/01/13 09:38:38;;;;;;;21.93;15.27;;;;;;;1.56;94.91;100520.84;5100981;28;20234;-71
2022/01/13 09:41:05;;;;;;;23.53;16.37;;;;;;;1.43;95.62;100513.84;5100616;28;20221;-70
2022/01/13 09:43:32;;;;;;;24.57;17.73;;;;;;;1.32;95.98;100519.00;5102398;28;20589;-70
2022/01/13 09:45:59;;;;;;;26.47;16.73;;;;;;;1.24;96.34;100518.06;5102788;28;20225;-70
2022/01/13 09:48:27;;;;;;;23.83;16.10;;;;;;;1.14;96.36;100516.28;5100274;28;20750;-70
2022/01/13 09:50:54;;;;;;;20.67;15.07;;;;;;;1.08;96.77;100515.38;5100353;28;20224;-71
2022/01/13 09:53:20;;;;;;;25.23;17.07;;;;;;;0.99;98.32;100521.38;5100537;28;20248;-70
2022/01/13 09:55:48;;;;;;;20.70;15.40;;;;;;;0.94;98.90;100517.03;5102452;28;20233;-70
2022/01/13 09:58:16;;;;;;;26.97;17.20;;;;;;;0.97;99.31;100522.22;5100394;28;20206;-70
2022/01/13 10:00:45;;;;;;;22.30;15.47;;;;;;;0.95;100.00;100518.75;5099924;28;20211;-70
2022/01/13 10:03:13;;;;;;;18.63;12.37;;;;;;;0.98;100.00;100514.44;5101964;28;20207;-70
2022/01/13 10:05:48;;;;;;;17.87;13.00;;;;;;;0.95;100.00;100517.03;5101971;28;20585;-70
2022/01/13 10:08:15;;;;;;;16.67;10.77;;;;;;;0.93;100.00;100516.13;5100133;28;20217;-70
2022/01/13 10:10:43;;;;;;;16.93;11.93;;;;;;;0.96;100.00;100513.56;5108817;28;20210;-70
2022/01/13 10:13:14;;;;;;;16.20;11.77;;;;;;;0.99;100.00;100508.38;5103848;28;20218;-70
2022/01/13 10:18:38;;;;;;;17.77;11.77;;;;;;;0.91;100.00;100502.25;5098134;28;20214;-69
2022/01/13 10:21:07;;;;;;;18.27;12.70;;;;;;;0.88;100.00;100507.47;5103129;28;20214;-70
2022/01/13 10:23:33;;;;;;;18.23;12.67;;;;;;;0.97;100.00;100507.50;5100043;28;20222;-70
2022/01/13 10:26:09;;;;;;;17.70;13.00;;;;;;;0.98;100.00;100506.63;5099656;28;20302;-70
2022/01/13 10:28:36;;;;;;;19.70;13.00;;;;;;;1.02;100.00;100511.00;5100275;28;20211;-70
2022/01/13 10:31:03;;;;;;;18.03;12.50;;;;;;;1.06;100.00;100517.97;5108078;28;20262;-70
2022/01/13 10:33:30;;;;;;;18.97;12.60;;;;;;;1.06;100.00;100502.34;5099581;28;20218;-70
2022/01/13 10:36:08;;;;;;;19.17;13.30;;;;;;;1.10;100.00;100509.31;5099331;28;20235;-70
2022/01/13 10:38:53;;;;;;;20.80;13.77;;;;;;;1.15;100.00;100507.63;5101507;28;20214;-70
2022/01/13 10:41:35;;;;;;;19.43;13.00;;;;;;;1.13;100.00;100509.34;5099493;28;20220;-70
2022/01/13 10:44:14;;;;;;;18.33;12.30;;;;;;;1.14;100.00;100505.88;5097839;28;20613;-70
2022/01/13 10:46:58;;;;;;;19.50;13.20;;;;;;;1.24;100.00;100499.84;5102425;28;20216;-70
2022/01/13 10:49:32;;;;;;;18.77;13.30;;;;;;;1.25;99.85;100500.72;5098855;28;20691;-70
2022/01/13 10:52:18;;;;;;;21.27;13.73;;;;;;;1.23;99.97;100500.69;5099423;28;20218;-70
2022/01/13 10:54:44;;;;;;;21.43;14.00;;;;;;;1.30;100.00;100497.25;5109168;28;20237;-70
2022/01/13 10:57:17;;;;;;;17.77;12.77;;;;;;;1.37;99.68;100499.06;5111219;28;20263;-70
2022/01/13 10:59:45;;;;;;;17.60;12.47;;;;;;;1.42;100.00;100502.53;5111269;28;20214;-70
2022/01/13 11:02:11;;;;;;;20.60;13.83;;;;;;;1.43;99.70;100498.19;5109404;28;20210;-70
2022/01/13 11:04:38;;;;;;;18.57;12.30;;;;;;;1.46;98.65;100499.09;5109115;28;20215;-70
2022/01/13 11:07:16;;;;;;;19.53;13.30;;;;;;;1.43;99.00;100498.19;5111333;28;20209;-70
2022/01/13 11:09:44;;;;;;;18.10;12.13;;;;;;;1.48;99.33;100499.94;5110653;28;20225;-70
2022/01/13 11:12:12;;;;;;;21.57;13.70;;;;;;;1.53;99.31;100490.41;5109883;28;20211;-70
2022/01/13 11:14:42;;;;;;;18.23;13.20;;;;;;;1.64;99.04;100488.72;5110565;28;20635;-70
2022/01/13 11:17:11;;;;;;;18.57;11.97;;;;;;;1.64;98.62;100498.28;5111092;28;20213;-70
2022/01/13 11:19:41;;;;;;;17.83;12.13;;;;;;;1.67;98.20;100503.50;5110874;28;20264;-70
2022/01/13 11:22:09;;;;;;;17.53;11.60;;;;;;;1.63;98.42;100513.06;5107315;28;20222;-70
2022/01/13 11:24:37;;;;;;;17.43;11.90;;;;;;;1.73;99.25;100514.81;5110754;28;20619;-70